Balzers Heliport

LSXB · Balzers, Liechtenstein

METAR pasados LSXB · Balzers Heliport

A continuación puedes ver los METAR de los últimos días. Selecciona un año para ver los METAR más antiguos, desde el año 2007 en adelante.

19 de julio de 2024

Hora Código Tiempo Temp. Visibilidad Cielo nuboso Viento METAR/SPECI
15:50
V
28 °C 10 km+ - 320° 320° 3 kt METAR LSZR 191350Z 32003KT CAVOK 28/16 Q1018 RMK L
15:20
V
28 °C 10 km+ - 320° 320° 3 kt METAR LSZR 191320Z 32003KT CAVOK 28/14 Q1018 RMK L
14:50
V
26 °C 10 km+ - 280° 280° 3 kt METAR LSZR 191250Z 28003KT CAVOK 26/19 Q1019 RMK K
14:20
V
26 °C 10 km+ - 280° 280° 3 kt METAR LSZR 191220Z 28003KT CAVOK 26/19 Q1019 RMK K
13:50
V
26 °C 10 km+ - 290° 290° 4 kt METAR LSZR 191150Z AUTO 29004KT 210V340 9999 R10/0175N //////TCU 26/19 Q1019
13:20
V
25 °C 10 km+ - 300° 300° 4 kt METAR LSZR 191120Z 30004KT CAVOK 25/20 Q1019 RMK I
12:50
V
24 °C 10 km+ - 300° 300° 5 kt METAR LSZR 191050Z 30005KT 270V350 CAVOK 24/20 Q1020 RMK H
12:20
V
24 °C 10 km+ - 300° 300° 5 kt METAR LSZR 191020Z 30005KT 270V350 CAVOK 24/20 Q1020 RMK H
11:50
V
23 °C 10 km+ - 300° 300° 4 kt METAR LSZR 190950Z 30004KT CAVOK 23/20 Q1020 RMK G
11:20
V
23 °C 10 km+ - 300° 300° 4 kt METAR LSZR 190920Z 30004KT CAVOK 23/20 Q1020 RMK G
10:50
V
22 °C 10 km+ - 320° 320° 4 kt METAR LSZR 190850Z 32004KT CAVOK 22/19 Q1020 RMK F
10:20
V
22 °C 10 km+ - 320° 320° 4 kt METAR LSZR 190820Z 32004KT CAVOK 22/19 Q1020 RMK F
09:50
V
21 °C 10 km+ - 320° 320° 4 kt METAR LSZR 190750Z AUTO 32004KT 280V350 CAVOK 21/19 Q1020
09:20
V
22 °C 10 km+ - 290° 290° 4 kt METAR LSZR 190720Z AUTO 29004KT 250V340 CAVOK 22/20 Q1020
08:50
V
21 °C 10 km+ - Var Var 2 kt METAR LSZR 190650Z VRB02KT CAVOK 21/19 Q1020 RMK D
08:20
V
20 °C 10 km+ - 270° 270° 4 kt METAR LSZR 190620Z 27004KT 230V300 CAVOK 20/19 Q1020 RMK C
07:50
V
20 °C 10 km+ - 270° 270° 4 kt METAR LSZR 190550Z 27004KT 230V300 CAVOK 20/19 Q1020 RMK C
07:20
V
18 °C 10 km+ - Var Var 1 kt METAR LSZR 190520Z VRB01KT CAVOK 18/18 Q1021 RMK B
06:50
V
18 °C 10 km+ - Var Var 1 kt METAR LSZR 190450Z VRB01KT CAVOK 18/18 Q1021 RMK B
06:20
V
18 °C 10 km+ - 140° 140° 1 kt METAR LSZR 190420Z 14001KT CAVOK 18/17 Q1020 RMK A
05:50
M
17 °C 7 km - 110° 110° 2 kt METAR LSZR 190350Z AUTO 11002KT 7000 NCD 17/17 Q1020
05:20
V
18 °C 9 km - 130° 130° 1 kt METAR LSZR 190320Z AUTO 13001KT 9000 R10/1400D NCD 18/18 Q1020
04:50
V
18 °C 10 km+ - Var Var 1 kt METAR LSZR 190250Z AUTO VRB01KT CAVOK 18/17 Q1020
04:20
V
18 °C 9 km - 210° 210° 2 kt METAR LSZR 190220Z AUTO 21002KT 9000 NCD 18/18 Q1020
03:50
V
18 °C 10 km+ - Var Var 1 kt METAR LSZR 190150Z AUTO VRB01KT CAVOK 18/18 Q1020
03:20
V
18 °C 10 km+ - Var Var 1 kt METAR LSZR 190120Z AUTO VRB01KT 9999 FG NCD 18/18 Q1020
02:50
V
18 °C 10 km+ - 190° 190° 1 kt METAR LSZR 190050Z AUTO 19001KT CAVOK 18/18 Q1020
02:20
V
19 °C 10 km+ - 100° 100° 3 kt METAR LSZR 190020Z AUTO 10003KT CAVOK 19/18 Q1020
01:50
V
19 °C 10 km+ - 190° 190° 2 kt METAR LSZR 182350Z AUTO 19002KT CAVOK 19/19 Q1021
01:20
V
19 °C 10 km+ - Var Var 1 kt METAR LSZR 182320Z AUTO VRB01KT CAVOK 19/18 Q1021
00:50
V
19 °C 10 km+ - Var Var 2 kt METAR LSZR 182250Z AUTO VRB02KT CAVOK 19/19 Q1021
00:20
V
19 °C 10 km+ - 070° 070° 2 kt METAR LSZR 182220Z AUTO 07002KT CAVOK 19/18 Q1020

18 de julio de 2024

Hora Código Tiempo Temp. Visibilidad Cielo nuboso Viento METAR/SPECI
23:50
V
20 °C 10 km+ - Var Var 1 kt METAR LSZR 182150Z AUTO VRB01KT CAVOK 20/19 Q1020
23:20
V
21 °C 10 km+ - Var Var 1 kt METAR LSZR 182120Z AUTO VRB01KT CAVOK 21/18 Q1021
22:50
V
20 °C 10 km+ - 240° 240° 1 kt METAR LSZR 182050Z AUTO 24001KT CAVOK 20/19 Q1021
22:20
V
21 °C 10 km+ - Var Var 1 kt METAR LSZR 182020Z AUTO VRB01KT CAVOK 21/19 Q1021
21:50
I
22 °C 4,8 km - 220° 220° 2 kt METAR LSZR 181950Z AUTO 22002KT 4800 BR NCD 22/19 Q1020
21:20
V
22 °C 10 km+ - Var Var 2 kt METAR LSZR 181920Z AUTO VRB02KT CAVOK 22/20 Q1020
20:50
V
24 °C 10 km+ - 190° 190° 2 kt METAR LSZR 181850Z AUTO 19002KT CAVOK 24/20 Q1020
20:20
V
26 °C 10 km+ - Var Var 1 kt METAR LSZR 181820Z AUTO VRB01KT CAVOK 26/20 Q1020
19:50
V
26 °C 10 km+ - 300° 300° 4 kt METAR LSZR 181750Z AUTO 30004KT 260V330 CAVOK 26/19 Q1020
19:20
V
27 °C 10 km+ - 270° 270° 4 kt METAR LSZR 181720Z 27004KT CAVOK 27/19 Q1020 RMK N
18:50
V
27 °C 10 km+ - 270° 270° 4 kt METAR LSZR 181650Z 27004KT CAVOK 27/19 Q1020 RMK N
18:20
V
27 °C 10 km+ - 280° 280° 5 kt METAR LSZR 181620Z 28005KT CAVOK 27/18 Q1020 RMK M
17:50
V
27 °C 10 km+ - 280° 280° 5 kt METAR LSZR 181550Z 28005KT CAVOK 27/18 Q1020 RMK M
17:20
V
27 °C 10 km+ - 270° 270° 6 kt METAR LSZR 181520Z 27006KT CAVOK 27/18 Q1020 RMK L
16:50
V
27 °C 10 km+ - 270° 270° 6 kt METAR LSZR 181450Z 27006KT CAVOK 27/18 Q1020 RMK L
16:20
V
26 °C 10 km+ - 280° 280° 6 kt METAR LSZR 181420Z 28006KT CAVOK 26/17 Q1021 RMK K
15:50
V
26 °C 10 km+ - 280° 280° 6 kt METAR LSZR 181350Z 28006KT CAVOK 26/17 Q1021 RMK K
15:20
V
26 °C 10 km+ - 260° 260° 5 kt METAR LSZR 181320Z 26005KT 220V340 CAVOK 26/18 Q1021 RMK J
14:50
V
26 °C 10 km+ - 260° 260° 5 kt METAR LSZR 181250Z 26005KT 220V340 CAVOK 26/18 Q1021 RMK J
14:20
V
24 °C 10 km+ - Var Var 3 kt METAR LSZR 181220Z VRB03KT CAVOK 24/16 Q1021 RMK I
13:50
V
24 °C 10 km+ - Var Var 3 kt METAR LSZR 181150Z VRB03KT CAVOK 24/16 Q1021 RMK I
13:20
V
24 °C 10 km+ - 290° 290° 5 kt METAR LSZR 181120Z 29005KT CAVOK 24/16 Q1021 RMK H
12:50
V
24 °C 10 km+ - 300° 300° 5 kt METAR LSZR 181050Z 30005KT 230V350 CAVOK 24/16 Q1021 RMK H
12:20
V
22 °C 10 km+ - 280° 280° 5 kt METAR LSZR 181020Z 28005KT 250V330 9999 FEW025 22/17 Q1022 RMK G
11:50
V
22 °C 10 km+ - 280° 280° 5 kt METAR LSZR 180950Z 28005KT 250V330 9999 FEW025 22/17 Q1022 RMK G
11:20
V
21 °C 10 km+ - 280° 280° 5 kt METAR LSZR 180920Z 28005KT 230V330 9999 FEW025 21/18 Q1022 RMK F
10:50
V
21 °C 10 km+ - 300° 300° 5 kt METAR LSZR 180850Z 30005KT 270V330 9999 FEW025 21/18 Q1022 RMK F
10:20
V
19 °C 10 km+ - 300° 300° 5 kt METAR LSZR 180820Z 30005KT 260V330 9999 FEW015 19/17 Q1022 RMK E
09:50
V
19 °C 10 km+ - 300° 300° 5 kt METAR LSZR 180750Z 30005KT 260V330 9999 FEW015 19/17 Q1022 RMK E
09:20
V
19 °C 10 km+ - Var Var 3 kt METAR LSZR 180720Z VRB03KT 9999 FEW011 19/17 Q1021 RMK D
08:50
V
19 °C 10 km+ - 300° 300° 4 kt METAR LSZR 180650Z 30004KT 250V330 9999 FEW011 19/17 Q1021 RMK C
08:20
V
19 °C 10 km+ - Var Var 2 kt METAR LSZR 180620Z VRB02KT 9999 FEW011 19/17 Q1021 RMK C
07:50
V
18 °C 10 km+ - Var Var 1 kt METAR LSZR 180550Z VRB01KT CAVOK 18/16 Q1021 RMK B
07:20
V
17 °C 10 km+ - 070° 070° 2 kt METAR LSZR 180520Z 07002KT CAVOK 17/16 Q1021 RMK B
06:50
V
16 °C 10 km+ - 060° 060° 2 kt METAR LSZR 180450Z 06002KT CAVOK 16/15 Q1021 RMK A
06:20
V
15 °C 10 km+ - Var Var 2 kt METAR LSZR 180420Z VRB02KT CAVOK 15/15 Q1021 RMK A
05:50
V
15 °C 10 km+ - 110° 110° 2 kt METAR LSZR 180350Z AUTO 11002KT CAVOK 15/15 Q1021
05:20
V
15 °C 9 km - Var Var 1 kt METAR LSZR 180320Z AUTO VRB01KT 9000 NCD 15/15 Q1021
04:50
V
16 °C 10 km+ - 090° 090° 2 kt METAR LSZR 180250Z AUTO 09002KT CAVOK 16/15 Q1021
04:20
V
16 °C 10 km+ - Var Var 2 kt METAR LSZR 180220Z AUTO VRB02KT CAVOK 16/16 Q1021
03:50
V
15 °C 10 km+ - 200° 200° 2 kt METAR LSZR 180150Z AUTO 20002KT CAVOK 15/15 Q1021
03:20
V
15 °C 10 km+ - Var Var 2 kt METAR LSZR 180120Z AUTO VRB02KT CAVOK 15/15 Q1021
02:50
V
16 °C 10 km+ - Var Var 1 kt METAR LSZR 180050Z AUTO VRB01KT CAVOK 16/15 Q1021
02:20
V
16 °C 10 km+ - Var Var 1 kt METAR LSZR 180020Z AUTO VRB01KT CAVOK 16/16 Q1022
01:50
V
16 °C 10 km+ - Var Var 1 kt METAR LSZR 172350Z AUTO VRB01KT CAVOK 16/16 Q1022
01:20
V
16 °C 10 km+ - Var Var 1 kt METAR LSZR 172320Z AUTO VRB01KT CAVOK 16/16 Q1022
00:50
V
16 °C 10 km+ - Var Var 2 kt METAR LSZR 172250Z AUTO VRB02KT CAVOK 16/16 Q1022
00:20
V
18 °C 10 km+ - Var Var 2 kt METAR LSZR 172220Z AUTO VRB02KT CAVOK 18/16 Q1022

17 de julio de 2024

Hora Código Tiempo Temp. Visibilidad Cielo nuboso Viento METAR/SPECI
23:50
V
18 °C 10 km+ - 110° 110° 3 kt METAR LSZR 172150Z AUTO 11003KT CAVOK 18/16 Q1022
23:20
V
18 °C 10 km+ - Var Var 2 kt METAR LSZR 172120Z AUTO VRB02KT CAVOK 18/16 Q1022
22:50
V
19 °C 10 km+ - 180° 180° 3 kt METAR LSZR 172050Z AUTO 18003KT 9999 NCD 19/16 Q1022
22:20
V
19 °C 10 km+ - Var Var 1 kt METAR LSZR 172020Z AUTO VRB01KT 9999 SCT070 19/16 Q1022
21:50
L
19 °C 1,1 km - 200° 200° 2 kt METAR LSZR 171950Z AUTO 20002KT 1100 R10/1100D BR NCD 19/17 Q1022
21:20
V
19 °C 10 km+ - 200° 200° 3 kt METAR LSZR 171920Z AUTO 20003KT 9999 FEW065 19/17 Q1022
20:50
V
23 °C 10 km+ - 050° 050° 1 kt METAR LSZR 171850Z 05001KT 9999 SCT060 23/16 Q1022 RMK O
20:20
V
23 °C 10 km+ - 050° 050° 1 kt METAR LSZR 171820Z 05001KT 9999 SCT060 23/16 Q1022 RMK O
19:50
V
23 °C 10 km+ 6.500 ft Var Var 2 kt METAR LSZR 171750Z VRB02KT 9999 BKN065 23/16 Q1021 RMK N
19:20
V
23 °C 10 km+ 6.500 ft Var Var 2 kt METAR LSZR 171720Z VRB02KT 9999 BKN065 23/16 Q1021 RMK N
18:50
V
23 °C 10 km+ 6.500 ft 060° 060° 4 kt METAR LSZR 171650Z 06004KT 9999 BKN065 23/16 Q1021 RMK M
18:20
V
23 °C 10 km+ 6.500 ft 060° 060° 4 kt METAR LSZR 171620Z 06004KT 9999 BKN065 23/16 Q1021 RMK M
17:50
V
23 °C 10 km+ 7.000 ft Var Var 1 kt METAR LSZR 171550Z VRB01KT 9999 BKN070 23/15 Q1022 RMK L
17:20
V
23 °C 10 km+ 7.000 ft Var Var 1 kt METAR LSZR 171520Z VRB01KT 9999 BKN070 23/15 Q1022 RMK L
16:50
V
23 °C 10 km+ 6.500 ft Var Var 1 kt METAR LSZR 171450Z VRB01KT 9999 BKN065 23/13 Q1022 RMK K
16:20
V
23 °C 10 km+ 6.500 ft Var Var 1 kt METAR LSZR 171420Z VRB01KT 9999 BKN065 23/13 Q1022 RMK K
15:50
V
23 °C 10 km+ 6.500 ft Var Var 1 kt METAR LSZR 171350Z VRB01KT 9999 BKN065 23/12 Q1022 RMK J
15:20
V
23 °C 10 km+ 6.500 ft Var Var 1 kt METAR LSZR 171320Z VRB01KT 9999 BKN065 23/12 Q1022 RMK J
14:50
V
22 °C 10 km+ 6.500 ft 260° 260° 3 kt METAR LSZR 171250Z 26003KT 9999 FEW036 BKN065 22/13 Q1022 RMK I
14:20
V
22 °C 10 km+ 6.500 ft 260° 260° 3 kt METAR LSZR 171220Z 26003KT 9999 FEW036 BKN065 22/13 Q1022 RMK I
13:50
V
22 °C 10 km+ 6.500 ft 280° 280° 4 kt METAR LSZR 171150Z 28004KT 240V330 9999 FEW036 BKN065 22/14 Q1022 RMK H
13:20
V
22 °C 10 km+ 6.500 ft 280° 280° 4 kt METAR LSZR 171120Z 28004KT 240V330 9999 FEW036 BKN065 22/14 Q1022 RMK H
12:50
V
21 °C 10 km+ 6.000 ft 300° 300° 5 kt METAR LSZR 171050Z 30005KT 260V360 9999 BKN060 21/15 Q1022 RMK G
12:20
V
21 °C 10 km+ 6.000 ft 300° 300° 5 kt METAR LSZR 171020Z 30005KT 260V360 9999 BKN060 21/15 Q1022 RMK G
11:50
V
20 °C 10 km+ 6.000 ft 330° 330° 4 kt METAR LSZR 170950Z 33004KT 290V360 9999 BKN060 20/16 Q1022 RMK F
11:20
V
20 °C 10 km+ 6.000 ft 330° 330° 4 kt METAR LSZR 170920Z 33004KT 290V360 9999 BKN060 20/16 Q1022 RMK F
10:50
V
20 °C 10 km+ 6.000 ft 290° 290° 5 kt METAR LSZR 170850Z 29005KT 9999 BKN060 20/16 Q1022 RMK E
10:20
V
20 °C 10 km+ 6.000 ft 290° 290° 5 kt METAR LSZR 170820Z 29005KT 9999 BKN060 20/16 Q1022 RMK E
09:50
V
20 °C 10 km+ 5.500 ft 270° 270° 4 kt METAR LSZR 170750Z 27004KT 9999 BKN055 20/16 Q1022 RMK D
09:20
V
20 °C 10 km+ 5.500 ft 270° 270° 4 kt METAR LSZR 170720Z 27004KT 9999 BKN055 20/16 Q1022 RMK D
08:50
V
19 °C 10 km+ 5.500 ft 220° 220° 2 kt METAR LSZR 170650Z 22002KT 9999 BKN055 19/16 Q1022 RMK C
08:20
V
19 °C 10 km+ 5.500 ft 220° 220° 2 kt METAR LSZR 170620Z 22002KT 9999 BKN055 19/16 Q1022 RMK C
07:50
V
19 °C 10 km+ 5.000 ft Var Var 1 kt METAR LSZR 170550Z VRB01KT 9999 BKN050 19/16 Q1021 RMK B
Cambiar esta información